sensor_id;sensor_type;location;lat;lon;timestamp;temperature;humidity
52187;DHT22;38161;53.020;6.598;2022-11-20T00:00:11;-1.10;99.90
52187;DHT22;38161;53.020;6.598;2022-11-20T00:02:37;-1.10;99.90
52187;DHT22;38161;53.020;6.598;2022-11-20T00:05:03;-1.10;99.90
52187;DHT22;38161;53.020;6.598;2022-11-20T00:07:28;-1.10;99.90
52187;DHT22;38161;53.020;6.598;2022-11-20T00:09:54;-1.10;99.90
52187;DHT22;38161;53.020;6.598;2022-11-20T00:12:20;-1.10;99.90
52187;DHT22;38161;53.020;6.598;2022-11-20T00:14:45;-1.00;99.90
52187;DHT22;38161;53.020;6.598;2022-11-20T00:17:11;-1.00;99.90
52187;DHT22;38161;53.020;6.598;2022-11-20T00:19:37;-1.00;99.90
52187;DHT22;38161;53.020;6.598;2022-11-20T00:22:02;-1.00;99.90
52187;DHT22;38161;53.020;6.598;2022-11-20T00:24:28;-1.00;99.90
52187;DHT22;38161;53.020;6.598;2022-11-20T00:26:53;-1.00;99.90
52187;DHT22;38161;53.020;6.598;2022-11-20T00:29:19;-1.00;99.90
52187;DHT22;38161;53.020;6.598;2022-11-20T00:31:45;-1.00;99.90
52187;DHT22;38161;53.020;6.598;2022-11-20T00:34:11;-1.00;99.90
52187;DHT22;38161;53.020;6.598;2022-11-20T00:36:36;-0.90;99.90
52187;DHT22;38161;53.020;6.598;2022-11-20T00:39:02;-0.90;99.90
52187;DHT22;38161;53.020;6.598;2022-11-20T00:41:29;-0.90;99.90
52187;DHT22;38161;53.020;6.598;2022-11-20T00:43:55;-0.80;99.90
52187;DHT22;38161;53.020;6.598;2022-11-20T00:46:24;-0.80;99.90
52187;DHT22;38161;53.020;6.598;2022-11-20T00:48:50;-0.80;99.90
52187;DHT22;38161;53.020;6.598;2022-11-20T00:51:18;-0.80;99.90
52187;DHT22;38161;53.020;6.598;2022-11-20T00:53:45;-0.80;99.90
52187;DHT22;38161;53.020;6.598;2022-11-20T00:56:13;0.50;99.90
52187;DHT22;38161;53.020;6.598;2022-11-20T00:58:40;-0.80;99.90
52187;DHT22;38161;53.020;6.598;2022-11-20T01:01:10;-0.80;99.90
52187;DHT22;38161;53.020;6.598;2022-11-20T01:03:39;-0.80;99.90
52187;DHT22;38161;53.020;6.598;2022-11-20T01:06:13;-0.80;99.90
52187;DHT22;38161;53.020;6.598;2022-11-20T01:08:40;-0.80;99.90
52187;DHT22;38161;53.020;6.598;2022-11-20T01:11:08;0.00;99.90
52187;DHT22;38161;53.020;6.598;2022-11-20T01:13:34;-0.70;99.90
52187;DHT22;38161;53.020;6.598;2022-11-20T01:16:24;-0.70;99.90
52187;DHT22;38161;53.020;6.598;2022-11-20T01:18:52;-0.70;99.90
52187;DHT22;38161;53.020;6.598;2022-11-20T01:21:29;-0.70;99.90
52187;DHT22;38161;53.020;6.598;2022-11-20T01:23:55;-0.60;99.90
52187;DHT22;38161;53.020;6.598;2022-11-20T01:26:27;-0.70;99.90
52187;DHT22;38161;53.020;6.598;2022-11-20T01:28:54;-0.60;99.90
52187;DHT22;38161;53.020;6.598;2022-11-20T01:31:23;-0.60;99.90
52187;DHT22;38161;53.020;6.598;2022-11-20T01:33:51;-0.60;99.90
52187;DHT22;38161;53.020;6.598;2022-11-20T01:36:18;-0.60;99.90
52187;DHT22;38161;53.020;6.598;2022-11-20T01:38:44;-0.50;99.90
52187;DHT22;38161;53.020;6.598;2022-11-20T01:41:11;-0.50;99.90
52187;DHT22;38161;53.020;6.598;2022-11-20T01:43:58;-0.50;99.90
52187;DHT22;38161;53.020;6.598;2022-11-20T01:46:24;-0.50;99.90
52187;DHT22;38161;53.020;6.598;2022-11-20T01:49:16;-0.50;99.90
52187;DHT22;38161;53.020;6.598;2022-11-20T01:51:52;-0.50;99.90
52187;DHT22;38161;53.020;6.598;2022-11-20T01:54:23;-0.40;99.90
52187;DHT22;38161;53.020;6.598;2022-11-20T01:56:51;-0.50;99.90
52187;DHT22;38161;53.020;6.598;2022-11-20T01:59:20;-0.40;99.90
52187;DHT22;38161;53.020;6.598;2022-11-20T02:01:46;-0.50;99.90
52187;DHT22;38161;53.020;6.598;2022-11-20T02:04:13;-0.40;99.90
52187;DHT22;38161;53.020;6.598;2022-11-20T02:06:47;-0.40;99.90
52187;DHT22;38161;53.020;6.598;2022-11-20T02:09:15;-0.40;99.90
52187;DHT22;38161;53.020;6.598;2022-11-20T02:11:41;0.00;99.90
52187;DHT22;38161;53.020;6.598;2022-11-20T02:14:06;-0.40;99.90
52187;DHT22;38161;53.020;6.598;2022-11-20T02:16:51;-0.40;99.90
52187;DHT22;38161;53.020;6.598;2022-11-20T02:24:21;-0.40;99.90
52187;DHT22;38161;53.020;6.598;2022-11-20T02:26:52;-0.40;99.90
52187;DHT22;38161;53.020;6.598;2022-11-20T02:29:52;-0.40;99.90
52187;DHT22;38161;53.020;6.598;2022-11-20T02:32:29;-0.40;99.90
52187;DHT22;38161;53.020;6.598;2022-11-20T02:34:55;-0.30;99.90
52187;DHT22;38161;53.020;6.598;2022-11-20T02:37:22;-0.30;99.90
52187;DHT22;38161;53.020;6.598;2022-11-20T02:39:50;-0.30;99.90
52187;DHT22;38161;53.020;6.598;2022-11-20T02:42:17;-0.30;99.90
52187;DHT22;38161;53.020;6.598;2022-11-20T02:44:42;1.20;99.90
52187;DHT22;38161;53.020;6.598;2022-11-20T02:47:08;-0.40;99.90
52187;DHT22;38161;53.020;6.598;2022-11-20T02:49:34;-0.40;99.90
52187;DHT22;38161;53.020;6.598;2022-11-20T02:52:00;-0.30;99.90
52187;DHT22;38161;53.020;6.598;2022-11-20T02:54:25;-0.40;99.90
52187;DHT22;38161;53.020;6.598;2022-11-20T02:56:51;-0.40;99.90
52187;DHT22;38161;53.020;6.598;2022-11-20T02:59:17;-0.40;99.90
52187;DHT22;38161;53.020;6.598;2022-11-20T03:01:43;-0.40;99.90
52187;DHT22;38161;53.020;6.598;2022-11-20T03:04:08;-0.40;99.90
52187;DHT22;38161;53.020;6.598;2022-11-20T03:06:34;-0.30;99.90
52187;DHT22;38161;53.020;6.598;2022-11-20T03:09:00;-0.30;99.90
52187;DHT22;38161;53.020;6.598;2022-11-20T03:11:27;-0.30;99.90
52187;DHT22;38161;53.020;6.598;2022-11-20T03:13:53;-0.30;99.90
52187;DHT22;38161;53.020;6.598;2022-11-20T03:16:21;-0.30;99.90
52187;DHT22;38161;53.020;6.598;2022-11-20T03:18:47;-0.30;99.90
52187;DHT22;38161;53.020;6.598;2022-11-20T03:21:14;-0.30;99.90
52187;DHT22;38161;53.020;6.598;2022-11-20T03:23:40;-0.20;99.90
52187;DHT22;38161;53.020;6.598;2022-11-20T03:26:17;0.10;99.90
52187;DHT22;38161;53.020;6.598;2022-11-20T03:28:49;-0.20;99.90
52187;DHT22;38161;53.020;6.598;2022-11-20T03:31:16;-0.20;99.90
52187;DHT22;38161;53.020;6.598;2022-11-20T03:33:43;-0.20;99.90
52187;DHT22;38161;53.020;6.598;2022-11-20T03:36:11;-0.10;99.90
52187;DHT22;38161;53.020;6.598;2022-11-20T03:38:37;-0.10;99.90
52187;DHT22;38161;53.020;6.598;2022-11-20T03:41:09;-0.20;99.90
52187;DHT22;38161;53.020;6.598;2022-11-20T03:43:35;-0.10;99.90
52187;DHT22;38161;53.020;6.598;2022-11-20T03:46:01;-0.10;99.90
52187;DHT22;38161;53.020;6.598;2022-11-20T03:48:27;-0.20;99.90
52187;DHT22;38161;53.020;6.598;2022-11-20T03:51:06;-0.10;99.90
52187;DHT22;38161;53.020;6.598;2022-11-20T03:53:31;0.10;99.90
52187;DHT22;38161;53.020;6.598;2022-11-20T03:55:57;-0.10;99.90
52187;DHT22;38161;53.020;6.598;2022-11-20T03:58:23;-0.10;99.90
52187;DHT22;38161;53.020;6.598;2022-11-20T04:00:48;-0.10;99.90
52187;DHT22;38161;53.020;6.598;2022-11-20T04:03:14;-0.10;99.90
52187;DHT22;38161;53.020;6.598;2022-11-20T04:05:39;-0.10;99.90
52187;DHT22;38161;53.020;6.598;2022-11-20T04:08:05;-0.10;99.90
52187;DHT22;38161;53.020;6.598;2022-11-20T04:10:31;-0.10;99.90
52187;DHT22;38161;53.020;6.598;2022-11-20T04:12:57;-0.10;99.90
52187;DHT22;38161;53.020;6.598;2022-11-20T04:15:22;-0.10;99.90
52187;DHT22;38161;53.020;6.598;2022-11-20T04:17:48;-0.10;99.90
52187;DHT22;38161;53.020;6.598;2022-11-20T04:20:14;-0.10;99.90
52187;DHT22;38161;53.020;6.598;2022-11-20T04:22:40;-0.10;99.90
52187;DHT22;38161;53.020;6.598;2022-11-20T04:25:05;-0.10;99.90
52187;DHT22;38161;53.020;6.598;2022-11-20T04:27:31;-0.10;99.90
52187;DHT22;38161;53.020;6.598;2022-11-20T04:29:57;-0.10;99.90
52187;DHT22;38161;53.020;6.598;2022-11-20T04:32:23;-0.10;99.90
52187;DHT22;38161;53.020;6.598;2022-11-20T04:34:48;0.00;99.90
52187;DHT22;38161;53.020;6.598;2022-11-20T04:37:14;0.00;99.90
52187;DHT22;38161;53.020;6.598;2022-11-20T04:39:40;0.00;99.90
52187;DHT22;38161;53.020;6.598;2022-11-20T04:42:05;0.00;99.90
52187;DHT22;38161;53.020;6.598;2022-11-20T04:44:50;0.00;99.90
52187;DHT22;38161;53.020;6.598;2022-11-20T04:47:15;0.00;99.90
52187;DHT22;38161;53.020;6.598;2022-11-20T04:49:41;0.00;99.90
52187;DHT22;38161;53.020;6.598;2022-11-20T04:52:07;0.00;99.90
52187;DHT22;38161;53.020;6.598;2022-11-20T04:54:32;0.00;99.90
52187;DHT22;38161;53.020;6.598;2022-11-20T04:56:58;0.00;99.90
52187;DHT22;38161;53.020;6.598;2022-11-20T04:59:23;0.00;99.90
52187;DHT22;38161;53.020;6.598;2022-11-20T05:01:49;0.00;99.90
52187;DHT22;38161;53.020;6.598;2022-11-20T05:04:15;0.00;99.90
52187;DHT22;38161;53.020;6.598;2022-11-20T05:06:40;0.00;99.90
52187;DHT22;38161;53.020;6.598;2022-11-20T05:09:06;0.00;99.90
52187;DHT22;38161;53.020;6.598;2022-11-20T05:11:32;0.00;99.90
52187;DHT22;38161;53.020;6.598;2022-11-20T05:13:59;0.00;99.90
52187;DHT22;38161;53.020;6.598;2022-11-20T05:16:25;0.00;99.90
52187;DHT22;38161;53.020;6.598;2022-11-20T05:18:53;0.00;99.90
52187;DHT22;38161;53.020;6.598;2022-11-20T05:21:20;0.10;99.90
52187;DHT22;38161;53.020;6.598;2022-11-20T05:23:46;0.10;99.90
52187;DHT22;38161;53.020;6.598;2022-11-20T05:26:15;0.10;99.90
52187;DHT22;38161;53.020;6.598;2022-11-20T05:28:41;0.10;99.90
52187;DHT22;38161;53.020;6.598;2022-11-20T05:31:14;0.10;99.90
52187;DHT22;38161;53.020;6.598;2022-11-20T05:33:42;1.00;99.90
52187;DHT22;38161;53.020;6.598;2022-11-20T05:36:08;0.10;99.90
52187;DHT22;38161;53.020;6.598;2022-11-20T05:38:34;0.10;99.90
52187;DHT22;38161;53.020;6.598;2022-11-20T05:41:05;0.10;99.90
52187;DHT22;38161;53.020;6.598;2022-11-20T05:43:34;0.10;99.90
52187;DHT22;38161;53.020;6.598;2022-11-20T05:46:01;0.10;99.90
52187;DHT22;38161;53.020;6.598;2022-11-20T05:48:27;0.10;99.90
52187;DHT22;38161;53.020;6.598;2022-11-20T05:50:52;0.10;99.90
52187;DHT22;38161;53.020;6.598;2022-11-20T05:53:18;0.10;99.90
52187;DHT22;38161;53.020;6.598;2022-11-20T05:55:44;0.10;99.90
52187;DHT22;38161;53.020;6.598;2022-11-20T05:58:09;0.10;99.90
52187;DHT22;38161;53.020;6.598;2022-11-20T06:00:35;0.60;99.90
52187;DHT22;38161;53.020;6.598;2022-11-20T06:03:01;0.10;99.90
52187;DHT22;38161;53.020;6.598;2022-11-20T06:05:27;0.30;99.90
52187;DHT22;38161;53.020;6.598;2022-11-20T06:07:53;0.10;99.90
52187;DHT22;38161;53.020;6.598;2022-11-20T06:10:18;0.10;99.90
52187;DHT22;38161;53.020;6.598;2022-11-20T06:12:44;0.10;99.90
52187;DHT22;38161;53.020;6.598;2022-11-20T06:15:10;0.10;99.90
52187;DHT22;38161;53.020;6.598;2022-11-20T06:17:35;0.50;99.90
52187;DHT22;38161;53.020;6.598;2022-11-20T06:20:01;0.10;99.90
52187;DHT22;38161;53.020;6.598;2022-11-20T06:22:27;0.10;99.90
52187;DHT22;38161;53.020;6.598;2022-11-20T06:24:52;0.20;99.90
52187;DHT22;38161;53.020;6.598;2022-11-20T06:27:18;0.10;99.90
52187;DHT22;38161;53.020;6.598;2022-11-20T06:29:44;0.10;99.90
52187;DHT22;38161;53.020;6.598;2022-11-20T06:32:10;0.10;99.90
52187;DHT22;38161;53.020;6.598;2022-11-20T06:34:35;0.10;99.90
52187;DHT22;38161;53.020;6.598;2022-11-20T06:37:01;0.10;99.90
52187;DHT22;38161;53.020;6.598;2022-11-20T06:39:27;0.10;99.90
52187;DHT22;38161;53.020;6.598;2022-11-20T06:41:52;0.10;99.90
52187;DHT22;38161;53.020;6.598;2022-11-20T06:44:18;0.10;99.90
52187;DHT22;38161;53.020;6.598;2022-11-20T06:46:44;0.10;99.90
52187;DHT22;38161;53.020;6.598;2022-11-20T06:49:09;0.10;99.90
52187;DHT22;38161;53.020;6.598;2022-11-20T06:51:35;0.10;99.90
52187;DHT22;38161;53.020;6.598;2022-11-20T06:54:01;0.10;99.90
52187;DHT22;38161;53.020;6.598;2022-11-20T06:56:26;0.10;99.90
52187;DHT22;38161;53.020;6.598;2022-11-20T06:58:52;0.10;99.90
52187;DHT22;38161;53.020;6.598;2022-11-20T07:01:18;0.10;99.90
52187;DHT22;38161;53.020;6.598;2022-11-20T07:03:43;0.10;99.90
52187;DHT22;38161;53.020;6.598;2022-11-20T07:06:09;0.10;99.90
52187;DHT22;38161;53.020;6.598;2022-11-20T07:08:35;0.20;99.90
52187;DHT22;38161;53.020;6.598;2022-11-20T07:11:04;0.10;99.90
52187;DHT22;38161;53.020;6.598;2022-11-20T07:13:30;0.20;99.90
52187;DHT22;38161;53.020;6.598;2022-11-20T07:16:00;0.20;99.90
52187;DHT22;38161;53.020;6.598;2022-11-20T07:18:26;0.20;99.90
52187;DHT22;38161;53.020;6.598;2022-11-20T07:20:52;0.20;99.90
52187;DHT22;38161;53.020;6.598;2022-11-20T07:23:18;0.70;99.90
52187;DHT22;38161;53.020;6.598;2022-11-20T07:25:44;0.20;99.90
52187;DHT22;38161;53.020;6.598;2022-11-20T07:28:09;0.20;99.90
52187;DHT22;38161;53.020;6.598;2022-11-20T07:30:36;1.10;99.90
52187;DHT22;38161;53.020;6.598;2022-11-20T07:33:02;0.20;99.90
52187;DHT22;38161;53.020;6.598;2022-11-20T07:35:28;0.20;99.90
52187;DHT22;38161;53.020;6.598;2022-11-20T07:37:53;0.30;99.90
52187;DHT22;38161;53.020;6.598;2022-11-20T07:40:19;0.30;99.90
52187;DHT22;38161;53.020;6.598;2022-11-20T07:42:53;0.20;99.90
52187;DHT22;38161;53.020;6.598;2022-11-20T07:45:20;0.20;99.90
52187;DHT22;38161;53.020;6.598;2022-11-20T07:47:46;0.20;99.90
52187;DHT22;38161;53.020;6.598;2022-11-20T07:50:12;0.20;99.90
52187;DHT22;38161;53.020;6.598;2022-11-20T07:52:38;0.20;99.90
52187;DHT22;38161;53.020;6.598;2022-11-20T07:55:04;0.20;99.90
52187;DHT22;38161;53.020;6.598;2022-11-20T07:57:30;0.20;99.90
52187;DHT22;38161;53.020;6.598;2022-11-20T07:59:56;0.30;99.90
52187;DHT22;38161;53.020;6.598;2022-11-20T08:02:22;0.20;99.90
52187;DHT22;38161;53.020;6.598;2022-11-20T08:04:47;0.20;99.90
52187;DHT22;38161;53.020;6.598;2022-11-20T08:07:13;0.20;99.90
52187;DHT22;38161;53.020;6.598;2022-11-20T08:09:39;0.30;99.90
52187;DHT22;38161;53.020;6.598;2022-11-20T08:12:05;0.30;99.90
52187;DHT22;38161;53.020;6.598;2022-11-20T08:14:49;0.30;99.90
52187;DHT22;38161;53.020;6.598;2022-11-20T08:17:14;0.30;99.90
52187;DHT22;38161;53.020;6.598;2022-11-20T08:19:40;0.30;99.90
52187;DHT22;38161;53.020;6.598;2022-11-20T08:22:06;0.40;99.90
52187;DHT22;38161;53.020;6.598;2022-11-20T08:24:32;0.40;99.90
52187;DHT22;38161;53.020;6.598;2022-11-20T08:26:58;0.40;99.90
52187;DHT22;38161;53.020;6.598;2022-11-20T08:29:27;0.40;99.90
52187;DHT22;38161;53.020;6.598;2022-11-20T08:31:53;0.40;99.90
52187;DHT22;38161;53.020;6.598;2022-11-20T08:34:19;0.40;99.90
52187;DHT22;38161;53.020;6.598;2022-11-20T08:36:45;0.50;99.90
52187;DHT22;38161;53.020;6.598;2022-11-20T08:39:12;0.70;99.90
52187;DHT22;38161;53.020;6.598;2022-11-20T08:41:37;0.50;99.90
52187;DHT22;38161;53.020;6.598;2022-11-20T08:44:05;0.50;99.90
52187;DHT22;38161;53.020;6.598;2022-11-20T08:46:38;0.50;99.90
52187;DHT22;38161;53.020;6.598;2022-11-20T08:49:06;0.50;99.90
52187;DHT22;38161;53.020;6.598;2022-11-20T08:51:32;0.50;99.90
52187;DHT22;38161;53.020;6.598;2022-11-20T08:53:58;0.50;99.90
52187;DHT22;38161;53.020;6.598;2022-11-20T08:56:24;0.60;99.90
52187;DHT22;38161;53.020;6.598;2022-11-20T08:58:50;0.50;99.90
52187;DHT22;38161;53.020;6.598;2022-11-20T09:01:20;0.60;99.90
52187;DHT22;38161;53.020;6.598;2022-11-20T09:03:46;0.50;99.90
52187;DHT22;38161;53.020;6.598;2022-11-20T09:06:12;0.50;99.90
52187;DHT22;38161;53.020;6.598;2022-11-20T09:08:37;0.60;99.90
52187;DHT22;38161;53.020;6.598;2022-11-20T09:11:04;0.60;99.90
52187;DHT22;38161;53.020;6.598;2022-11-20T09:13:30;0.60;99.90
52187;DHT22;38161;53.020;6.598;2022-11-20T09:15:58;0.60;99.90
52187;DHT22;38161;53.020;6.598;2022-11-20T09:18:25;0.70;99.90
52187;DHT22;38161;53.020;6.598;2022-11-20T09:20:51;0.70;99.90
52187;DHT22;38161;53.020;6.598;2022-11-20T09:23:17;0.70;99.90
52187;DHT22;38161;53.020;6.598;2022-11-20T09:25:43;0.70;99.90
52187;DHT22;38161;53.020;6.598;2022-11-20T09:28:09;0.70;99.90
52187;DHT22;38161;53.020;6.598;2022-11-20T09:30:35;0.70;99.90
52187;DHT22;38161;53.020;6.598;2022-11-20T09:33:01;0.80;99.90
52187;DHT22;38161;53.020;6.598;2022-11-20T09:35:26;0.80;99.90
52187;DHT22;38161;53.020;6.598;2022-11-20T09:37:52;0.80;99.90
52187;DHT22;38161;53.020;6.598;2022-11-20T09:40:28;0.80;99.90
52187;DHT22;38161;53.020;6.598;2022-11-20T09:54:09;0.90;99.90
52187;DHT22;38161;53.020;6.598;2022-11-20T09:56:42;0.90;99.90
52187;DHT22;38161;53.020;6.598;2022-11-20T09:59:19;0.90;99.90
52187;DHT22;38161;53.020;6.598;2022-11-20T10:01:49;1.00;99.90
52187;DHT22;38161;53.020;6.598;2022-11-20T10:04:20;1.40;99.90
52187;DHT22;38161;53.020;6.598;2022-11-20T10:09:33;1.10;99.90
52187;DHT22;38161;53.020;6.598;2022-11-20T10:14:35;1.10;99.90
52187;DHT22;38161;53.020;6.598;2022-11-20T10:24:48;1.20;99.90
52187;DHT22;38161;53.020;6.598;2022-11-20T10:30:07;1.20;99.90
52187;DHT22;38161;53.020;6.598;2022-11-20T10:32:47;1.30;99.90
52187;DHT22;38161;53.020;6.598;2022-11-20T10:35:20;1.40;99.90
52187;DHT22;38161;53.020;6.598;2022-11-20T10:37:51;1.50;99.90
52187;DHT22;38161;53.020;6.598;2022-11-20T10:43:28;1.70;99.90
52187;DHT22;38161;53.020;6.598;2022-11-20T10:46:02;1.80;99.90
52187;DHT22;38161;53.020;6.598;2022-11-20T10:48:31;1.90;99.90
52187;DHT22;38161;53.020;6.598;2022-11-20T11:01:54;1.90;99.90
52187;DHT22;38161;53.020;6.598;2022-11-20T11:07:12;1.80;99.90
52187;DHT22;38161;53.020;6.598;2022-11-20T11:09:50;1.80;99.90
52187;DHT22;38161;53.020;6.598;2022-11-20T11:12:18;1.80;99.90
52187;DHT22;38161;53.020;6.598;2022-11-20T11:14:45;1.80;99.90
52187;DHT22;38161;53.020;6.598;2022-11-20T11:17:22;1.80;99.90
52187;DHT22;38161;53.020;6.598;2022-11-20T11:22:47;1.80;99.90
52187;DHT22;38161;53.020;6.598;2022-11-20T11:27:51;1.80;99.90
52187;DHT22;38161;53.020;6.598;2022-11-20T11:30:19;1.80;99.90
52187;DHT22;38161;53.020;6.598;2022-11-20T11:32:46;1.80;99.90
52187;DHT22;38161;53.020;6.598;2022-11-20T11:35:21;1.90;99.90
52187;DHT22;38161;53.020;6.598;2022-11-20T11:37:47;1.90;99.90
52187;DHT22;38161;53.020;6.598;2022-11-20T11:40:15;1.90;99.90
52187;DHT22;38161;53.020;6.598;2022-11-20T11:42:51;1.90;99.90
52187;DHT22;38161;53.020;6.598;2022-11-20T11:45:18;1.90;99.90
52187;DHT22;38161;53.020;6.598;2022-11-20T11:47:45;2.00;99.90
52187;DHT22;38161;53.020;6.598;2022-11-20T12:01:07;2.10;99.90
52187;DHT22;38161;53.020;6.598;2022-11-20T12:03:38;2.20;99.90
52187;DHT22;38161;53.020;6.598;2022-11-20T12:06:13;2.30;99.90
52187;DHT22;38161;53.020;6.598;2022-11-20T12:16:36;2.80;99.90
52187;DHT22;38161;53.020;6.598;2022-11-20T12:19:02;3.00;99.90
52187;DHT22;38161;53.020;6.598;2022-11-20T12:21:57;3.10;99.90
52187;DHT22;38161;53.020;6.598;2022-11-20T12:32:47;3.70;99.90
52187;DHT22;38161;53.020;6.598;2022-11-20T12:53:05;3.20;99.90
52187;DHT22;38161;53.020;6.598;2022-11-20T13:03:44;3.90;99.90
52187;DHT22;38161;53.020;6.598;2022-11-20T13:06:17;3.60;99.90
52187;DHT22;38161;53.020;6.598;2022-11-20T13:09:02;3.60;99.90
52187;DHT22;38161;53.020;6.598;2022-11-20T13:14:12;3.60;99.90
52187;DHT22;38161;53.020;6.598;2022-11-20T13:19:26;3.50;99.90
52187;DHT22;38161;53.020;6.598;2022-11-20T13:21:54;3.50;99.90
52187;DHT22;38161;53.020;6.598;2022-11-20T13:26:46;3.40;99.90
52187;DHT22;38161;53.020;6.598;2022-11-20T13:29:19;3.30;99.90
52187;DHT22;38161;53.020;6.598;2022-11-20T13:31:46;3.30;99.90
52187;DHT22;38161;53.020;6.598;2022-11-20T13:34:24;3.40;99.90
52187;DHT22;38161;53.020;6.598;2022-11-20T13:36:54;3.40;99.90
52187;DHT22;38161;53.020;6.598;2022-11-20T13:39:28;3.40;99.90
52187;DHT22;38161;53.020;6.598;2022-11-20T13:42:02;3.50;99.90
52187;DHT22;38161;53.020;6.598;2022-11-20T13:44:39;3.40;99.90
52187;DHT22;38161;53.020;6.598;2022-11-20T13:47:20;3.30;99.90
52187;DHT22;38161;53.020;6.598;2022-11-20T13:49:47;3.30;99.90
52187;DHT22;38161;53.020;6.598;2022-11-20T13:55:50;3.20;99.90
52187;DHT22;38161;53.020;6.598;2022-11-20T14:01:24;3.10;99.90
52187;DHT22;38161;53.020;6.598;2022-11-20T14:03:52;3.20;99.90
52187;DHT22;38161;53.020;6.598;2022-11-20T14:06:31;3.50;99.90
52187;DHT22;38161;53.020;6.598;2022-11-20T14:08:58;3.00;99.90
52187;DHT22;38161;53.020;6.598;2022-11-20T14:11:25;3.00;99.90
52187;DHT22;38161;53.020;6.598;2022-11-20T14:14:04;2.90;99.90
52187;DHT22;38161;53.020;6.598;2022-11-20T14:16:33;2.90;99.90
52187;DHT22;38161;53.020;6.598;2022-11-20T14:21:48;2.80;99.90
52187;DHT22;38161;53.020;6.598;2022-11-20T14:24:19;2.80;99.90
52187;DHT22;38161;53.020;6.598;2022-11-20T14:26:46;2.90;99.90
52187;DHT22;38161;53.020;6.598;2022-11-20T14:29:21;2.80;99.90
52187;DHT22;38161;53.020;6.598;2022-11-20T14:31:50;2.70;99.90
52187;DHT22;38161;53.020;6.598;2022-11-20T14:34:26;2.70;99.90
52187;DHT22;38161;53.020;6.598;2022-11-20T14:36:57;2.70;99.90
52187;DHT22;38161;53.020;6.598;2022-11-20T14:39:30;2.60;99.90
52187;DHT22;38161;53.020;6.598;2022-11-20T14:41:57;2.70;99.90
52187;DHT22;38161;53.020;6.598;2022-11-20T14:44:35;2.60;99.90
52187;DHT22;38161;53.020;6.598;2022-11-20T14:47:02;2.60;99.90
52187;DHT22;38161;53.020;6.598;2022-11-20T14:49:30;2.50;99.90
52187;DHT22;38161;53.020;6.598;2022-11-20T14:52:01;2.50;99.90
52187;DHT22;38161;53.020;6.598;2022-11-20T14:54:27;2.50;99.90
52187;DHT22;38161;53.020;6.598;2022-11-20T14:57:02;2.50;99.90
52187;DHT22;38161;53.020;6.598;2022-11-20T14:59:33;2.40;99.90
52187;DHT22;38161;53.020;6.598;2022-11-20T15:02:02;2.30;99.90
52187;DHT22;38161;53.020;6.598;2022-11-20T15:04:28;2.30;99.90
52187;DHT22;38161;53.020;6.598;2022-11-20T15:06:56;2.20;99.90
52187;DHT22;38161;53.020;6.598;2022-11-20T15:09:22;2.20;99.90
52187;DHT22;38161;53.020;6.598;2022-11-20T15:11:59;2.20;99.90
52187;DHT22;38161;53.020;6.598;2022-11-20T15:14:25;2.10;99.90
52187;DHT22;38161;53.020;6.598;2022-11-20T15:16:52;2.00;99.90
52187;DHT22;38161;53.020;6.598;2022-11-20T15:19:23;1.90;99.90
52187;DHT22;38161;53.020;6.598;2022-11-20T15:21:49;1.90;99.90
52187;DHT22;38161;53.020;6.598;2022-11-20T15:24:16;1.90;99.90
52187;DHT22;38161;53.020;6.598;2022-11-20T15:26:42;1.80;99.90
52187;DHT22;38161;53.020;6.598;2022-11-20T15:29:10;1.90;99.90
52187;DHT22;38161;53.020;6.598;2022-11-20T15:31:37;1.80;99.90
52187;DHT22;38161;53.020;6.598;2022-11-20T15:34:10;1.80;99.90
52187;DHT22;38161;53.020;6.598;2022-11-20T15:36:37;2.00;99.90
52187;DHT22;38161;53.020;6.598;2022-11-20T15:39:02;1.80;99.90
52187;DHT22;38161;53.020;6.598;2022-11-20T15:41:28;1.80;99.90
52187;DHT22;38161;53.020;6.598;2022-11-20T15:43:54;1.80;99.90
52187;DHT22;38161;53.020;6.598;2022-11-20T15:46:25;1.80;99.90
52187;DHT22;38161;53.020;6.598;2022-11-20T15:48:55;1.70;99.90
52187;DHT22;38161;53.020;6.598;2022-11-20T15:51:29;1.70;99.90
52187;DHT22;38161;53.020;6.598;2022-11-20T15:53:56;1.70;99.90
52187;DHT22;38161;53.020;6.598;2022-11-20T15:56:22;1.60;99.90
52187;DHT22;38161;53.020;6.598;2022-11-20T15:58:47;1.60;99.90
52187;DHT22;38161;53.020;6.598;2022-11-20T16:01:16;1.60;99.90
52187;DHT22;38161;53.020;6.598;2022-11-20T16:03:42;1.60;99.90
52187;DHT22;38161;53.020;6.598;2022-11-20T16:06:08;1.60;99.90
52187;DHT22;38161;53.020;6.598;2022-11-20T16:08:34;1.50;99.90
52187;DHT22;38161;53.020;6.598;2022-11-20T16:11:00;1.50;99.90
52187;DHT22;38161;53.020;6.598;2022-11-20T16:13:25;1.50;99.90
52187;DHT22;38161;53.020;6.598;2022-11-20T16:16:21;1.60;99.90
52187;DHT22;38161;53.020;6.598;2022-11-20T16:18:48;1.50;99.90
52187;DHT22;38161;53.020;6.598;2022-11-20T16:21:14;1.50;99.90
52187;DHT22;38161;53.020;6.598;2022-11-20T16:23:40;1.50;99.90
52187;DHT22;38161;53.020;6.598;2022-11-20T16:26:14;1.50;99.90
52187;DHT22;38161;53.020;6.598;2022-11-20T16:28:43;1.50;99.90
52187;DHT22;38161;53.020;6.598;2022-11-20T16:31:10;1.80;99.90
52187;DHT22;38161;53.020;6.598;2022-11-20T16:33:36;1.50;99.90
52187;DHT22;38161;53.020;6.598;2022-11-20T16:36:09;1.50;99.90
52187;DHT22;38161;53.020;6.598;2022-11-20T16:38:35;1.40;99.90
52187;DHT22;38161;53.020;6.598;2022-11-20T16:41:02;1.50;99.90
52187;DHT22;38161;53.020;6.598;2022-11-20T16:43:28;1.50;99.90
52187;DHT22;38161;53.020;6.598;2022-11-20T16:45:53;1.40;99.90
52187;DHT22;38161;53.020;6.598;2022-11-20T16:48:19;1.40;99.90
52187;DHT22;38161;53.020;6.598;2022-11-20T16:50:54;1.50;99.90
52187;DHT22;38161;53.020;6.598;2022-11-20T16:53:21;1.40;99.90
52187;DHT22;38161;53.020;6.598;2022-11-20T16:55:47;1.40;99.90
52187;DHT22;38161;53.020;6.598;2022-11-20T16:58:14;1.40;99.90
52187;DHT22;38161;53.020;6.598;2022-11-20T17:00:40;1.60;99.90
52187;DHT22;38161;53.020;6.598;2022-11-20T17:03:06;1.40;99.90
52187;DHT22;38161;53.020;6.598;2022-11-20T17:05:33;1.40;99.90
52187;DHT22;38161;53.020;6.598;2022-11-20T17:07:59;1.40;99.90
52187;DHT22;38161;53.020;6.598;2022-11-20T17:10:26;1.50;99.90
52187;DHT22;38161;53.020;6.598;2022-11-20T17:12:51;1.40;99.90
52187;DHT22;38161;53.020;6.598;2022-11-20T17:15:17;1.40;99.90
52187;DHT22;38161;53.020;6.598;2022-11-20T17:17:43;1.40;99.90
52187;DHT22;38161;53.020;6.598;2022-11-20T17:20:09;1.40;99.90
52187;DHT22;38161;53.020;6.598;2022-11-20T17:22:37;1.40;99.90
52187;DHT22;38161;53.020;6.598;2022-11-20T17:25:03;1.40;99.90
52187;DHT22;38161;53.020;6.598;2022-11-20T17:27:29;1.40;99.90
52187;DHT22;38161;53.020;6.598;2022-11-20T17:29:54;1.40;99.90
52187;DHT22;38161;53.020;6.598;2022-11-20T17:32:22;1.30;99.90
52187;DHT22;38161;53.020;6.598;2022-11-20T17:34:47;1.30;99.90
52187;DHT22;38161;53.020;6.598;2022-11-20T17:37:13;1.40;99.90
52187;DHT22;38161;53.020;6.598;2022-11-20T17:39:39;1.30;99.90
52187;DHT22;38161;53.020;6.598;2022-11-20T17:42:05;1.30;99.90
52187;DHT22;38161;53.020;6.598;2022-11-20T17:44:49;1.30;99.90
52187;DHT22;38161;53.020;6.598;2022-11-20T17:47:15;1.30;99.90
52187;DHT22;38161;53.020;6.598;2022-11-20T17:49:40;1.20;99.90
52187;DHT22;38161;53.020;6.598;2022-11-20T17:52:06;1.20;99.90